sensor_id;sensor_type;location;lat;lon;timestamp;P1;durP1;ratioP1;P2;durP2;ratioP2
4122;SDS011;2075;51.062;6.920;2024-03-08T00:01:55;34.47;;;17.23;;
4122;SDS011;2075;51.062;6.920;2024-03-08T00:04:47;28.73;;;16.80;;
4122;SDS011;2075;51.062;6.920;2024-03-08T00:07:36;25.63;;;16.00;;
4122;SDS011;2075;51.062;6.920;2024-03-08T00:10:25;31.67;;;16.40;;
4122;SDS011;2075;51.062;6.920;2024-03-08T00:13:42;35.97;;;16.67;;
4122;SDS011;2075;51.062;6.920;2024-03-08T00:16:50;30.20;;;16.63;;
4122;SDS011;2075;51.062;6.920;2024-03-08T00:19:48;29.40;;;16.00;;
4122;SDS011;2075;51.062;6.920;2024-03-08T00:22:41;29.80;;;16.60;;
4122;SDS011;2075;51.062;6.920;2024-03-08T00:25:32;27.07;;;16.23;;
4122;SDS011;2075;51.062;6.920;2024-03-08T00:28:20;31.00;;;16.13;;
4122;SDS011;2075;51.062;6.920;2024-03-08T00:31:30;28.80;;;15.67;;
4122;SDS011;2075;51.062;6.920;2024-03-08T00:34:27;33.67;;;17.20;;
4122;SDS011;2075;51.062;6.920;2024-03-08T00:37:22;30.33;;;15.90;;
4122;SDS011;2075;51.062;6.920;2024-03-08T00:40:16;29.87;;;16.70;;
4122;SDS011;2075;51.062;6.920;2024-03-08T00:43:09;30.30;;;16.70;;
4122;SDS011;2075;51.062;6.920;2024-03-08T00:46:00;29.33;;;16.70;;
4122;SDS011;2075;51.062;6.920;2024-03-08T00:48:53;31.40;;;18.13;;
4122;SDS011;2075;51.062;6.920;2024-03-08T00:51:44;31.63;;;17.50;;
4122;SDS011;2075;51.062;6.920;2024-03-08T00:54:35;28.57;;;16.20;;
4122;SDS011;2075;51.062;6.920;2024-03-08T00:57:36;32.83;;;15.80;;
4122;SDS011;2075;51.062;6.920;2024-03-08T01:00:27;33.70;;;16.53;;
4122;SDS011;2075;51.062;6.920;2024-03-08T01:03:18;29.37;;;16.60;;
4122;SDS011;2075;51.062;6.920;2024-03-08T01:06:15;33.07;;;17.60;;
4122;SDS011;2075;51.062;6.920;2024-03-08T01:09:20;29.63;;;16.47;;
4122;SDS011;2075;51.062;6.920;2024-03-08T01:12:15;30.80;;;16.83;;
4122;SDS011;2075;51.062;6.920;2024-03-08T01:15:18;32.50;;;17.37;;
4122;SDS011;2075;51.062;6.920;2024-03-08T01:18:14;42.60;;;18.47;;
4122;SDS011;2075;51.062;6.920;2024-03-08T01:21:08;31.93;;;17.70;;
4122;SDS011;2075;51.062;6.920;2024-03-08T01:23:58;32.17;;;16.93;;
4122;SDS011;2075;51.062;6.920;2024-03-08T01:26:47;35.40;;;18.53;;
4122;SDS011;2075;51.062;6.920;2024-03-08T01:29:35;32.70;;;17.13;;
4122;SDS011;2075;51.062;6.920;2024-03-08T01:32:22;39.20;;;19.13;;
4122;SDS011;2075;51.062;6.920;2024-03-08T01:35:17;34.23;;;18.20;;
4122;SDS011;2075;51.062;6.920;2024-03-08T01:38:06;35.80;;;19.30;;
4122;SDS011;2075;51.062;6.920;2024-03-08T01:41:04;31.77;;;18.70;;
4122;SDS011;2075;51.062;6.920;2024-03-08T01:43:54;37.20;;;18.40;;
4122;SDS011;2075;51.062;6.920;2024-03-08T01:46:41;36.43;;;18.10;;
4122;SDS011;2075;51.062;6.920;2024-03-08T01:49:45;30.37;;;16.40;;
4122;SDS011;2075;51.062;6.920;2024-03-08T01:52:35;31.30;;;15.97;;
4122;SDS011;2075;51.062;6.920;2024-03-08T01:55:43;31.07;;;16.97;;
4122;SDS011;2075;51.062;6.920;2024-03-08T01:58:41;36.17;;;17.73;;
4122;SDS011;2075;51.062;6.920;2024-03-08T02:01:31;28.60;;;16.27;;
4122;SDS011;2075;51.062;6.920;2024-03-08T02:04:23;28.37;;;15.63;;
4122;SDS011;2075;51.062;6.920;2024-03-08T02:07:15;33.47;;;17.57;;
4122;SDS011;2075;51.062;6.920;2024-03-08T02:10:09;29.67;;;17.07;;
4122;SDS011;2075;51.062;6.920;2024-03-08T02:12:58;34.50;;;17.00;;
4122;SDS011;2075;51.062;6.920;2024-03-08T02:15:55;37.70;;;17.77;;
4122;SDS011;2075;51.062;6.920;2024-03-08T02:18:51;38.10;;;16.83;;
4122;SDS011;2075;51.062;6.920;2024-03-08T02:21:45;39.43;;;18.40;;
4122;SDS011;2075;51.062;6.920;2024-03-08T02:24:37;30.80;;;16.60;;
4122;SDS011;2075;51.062;6.920;2024-03-08T02:27:32;35.67;;;17.50;;
4122;SDS011;2075;51.062;6.920;2024-03-08T02:30:22;34.00;;;17.37;;
4122;SDS011;2075;51.062;6.920;2024-03-08T02:33:28;36.33;;;17.37;;
4122;SDS011;2075;51.062;6.920;2024-03-08T02:36:16;28.50;;;15.90;;
4122;SDS011;2075;51.062;6.920;2024-03-08T02:39:14;31.40;;;16.70;;
4122;SDS011;2075;51.062;6.920;2024-03-08T02:42:06;35.60;;;18.00;;
4122;SDS011;2075;51.062;6.920;2024-03-08T02:44:56;31.53;;;18.40;;
4122;SDS011;2075;51.062;6.920;2024-03-08T02:47:45;35.23;;;17.67;;
4122;SDS011;2075;51.062;6.920;2024-03-08T02:50:42;34.40;;;16.60;;
4122;SDS011;2075;51.062;6.920;2024-03-08T02:53:28;32.07;;;17.67;;
4122;SDS011;2075;51.062;6.920;2024-03-08T02:56:44;36.37;;;17.70;;
4122;SDS011;2075;51.062;6.920;2024-03-08T02:59:38;35.00;;;18.00;;
4122;SDS011;2075;51.062;6.920;2024-03-08T03:02:32;30.80;;;17.40;;
4122;SDS011;2075;51.062;6.920;2024-03-08T03:05:29;33.67;;;18.27;;
4122;SDS011;2075;51.062;6.920;2024-03-08T03:08:29;35.17;;;18.47;;
4122;SDS011;2075;51.062;6.920;2024-03-08T03:11:22;45.00;;;17.83;;
4122;SDS011;2075;51.062;6.920;2024-03-08T03:14:20;38.53;;;17.57;;
4122;SDS011;2075;51.062;6.920;2024-03-08T03:17:10;35.10;;;17.50;;
4122;SDS011;2075;51.062;6.920;2024-03-08T03:20:04;34.27;;;17.13;;
4122;SDS011;2075;51.062;6.920;2024-03-08T03:22:54;38.80;;;19.23;;
4122;SDS011;2075;51.062;6.920;2024-03-08T03:25:53;39.20;;;17.70;;
4122;SDS011;2075;51.062;6.920;2024-03-08T03:28:47;30.63;;;17.10;;
4122;SDS011;2075;51.062;6.920;2024-03-08T03:31:55;32.00;;;16.13;;
4122;SDS011;2075;51.062;6.920;2024-03-08T03:34:44;33.27;;;18.30;;
4122;SDS011;2075;51.062;6.920;2024-03-08T03:37:35;33.00;;;16.40;;
4122;SDS011;2075;51.062;6.920;2024-03-08T03:40:30;30.43;;;16.40;;
4122;SDS011;2075;51.062;6.920;2024-03-08T03:43:23;34.43;;;17.87;;
4122;SDS011;2075;51.062;6.920;2024-03-08T03:46:13;30.57;;;17.00;;
4122;SDS011;2075;51.062;6.920;2024-03-08T03:49:16;34.87;;;16.90;;
4122;SDS011;2075;51.062;6.920;2024-03-08T03:52:22;30.70;;;17.47;;
4122;SDS011;2075;51.062;6.920;2024-03-08T03:55:12;36.60;;;17.83;;
4122;SDS011;2075;51.062;6.920;2024-03-08T03:57:58;30.67;;;16.90;;
4122;SDS011;2075;51.062;6.920;2024-03-08T04:00:49;37.60;;;17.90;;
4122;SDS011;2075;51.062;6.920;2024-03-08T04:03:59;40.40;;;17.17;;
4122;SDS011;2075;51.062;6.920;2024-03-08T04:06:56;33.43;;;17.60;;
4122;SDS011;2075;51.062;6.920;2024-03-08T04:10:05;37.07;;;17.70;;
4122;SDS011;2075;51.062;6.920;2024-03-08T04:12:58;36.97;;;18.47;;
4122;SDS011;2075;51.062;6.920;2024-03-08T04:15:51;37.73;;;17.83;;
4122;SDS011;2075;51.062;6.920;2024-03-08T04:18:43;28.73;;;16.30;;
4122;SDS011;2075;51.062;6.920;2024-03-08T04:21:36;34.20;;;17.50;;
4122;SDS011;2075;51.062;6.920;2024-03-08T04:24:29;40.43;;;17.50;;
4122;SDS011;2075;51.062;6.920;2024-03-08T04:27:35;30.17;;;15.60;;
4122;SDS011;2075;51.062;6.920;2024-03-08T04:30:25;31.63;;;16.90;;
4122;SDS011;2075;51.062;6.920;2024-03-08T04:33:14;34.47;;;17.27;;
4122;SDS011;2075;51.062;6.920;2024-03-08T04:36:15;36.73;;;17.90;;
4122;SDS011;2075;51.062;6.920;2024-03-08T04:39:05;29.27;;;17.00;;
4122;SDS011;2075;51.062;6.920;2024-03-08T04:42:01;38.27;;;18.67;;
4122;SDS011;2075;51.062;6.920;2024-03-08T04:44:53;39.03;;;16.50;;
4122;SDS011;2075;51.062;6.920;2024-03-08T04:47:43;31.13;;;16.00;;
4122;SDS011;2075;51.062;6.920;2024-03-08T04:51:09;30.57;;;15.67;;
4122;SDS011;2075;51.062;6.920;2024-03-08T04:54:11;32.23;;;15.70;;
4122;SDS011;2075;51.062;6.920;2024-03-08T04:57:05;33.83;;;17.13;;
4122;SDS011;2075;51.062;6.920;2024-03-08T04:59:54;37.20;;;17.57;;
4122;SDS011;2075;51.062;6.920;2024-03-08T05:03:05;35.50;;;16.73;;
4122;SDS011;2075;51.062;6.920;2024-03-08T05:05:55;33.67;;;16.90;;
4122;SDS011;2075;51.062;6.920;2024-03-08T05:08:53;37.97;;;17.40;;
4122;SDS011;2075;51.062;6.920;2024-03-08T05:11:39;33.40;;;17.30;;
4122;SDS011;2075;51.062;6.920;2024-03-08T05:14:50;32.53;;;17.10;;
4122;SDS011;2075;51.062;6.920;2024-03-08T05:18:33;30.57;;;16.47;;
4122;SDS011;2075;51.062;6.920;2024-03-08T05:22:11;33.53;;;17.90;;
4122;SDS011;2075;51.062;6.920;2024-03-08T05:29:21;35.83;;;17.87;;
4122;SDS011;2075;51.062;6.920;2024-03-08T05:39:08;37.77;;;16.60;;
4122;SDS011;2075;51.062;6.920;2024-03-08T05:41:55;36.43;;;17.27;;
4122;SDS011;2075;51.062;6.920;2024-03-08T05:44:41;35.90;;;16.70;;
4122;SDS011;2075;51.062;6.920;2024-03-08T05:47:29;38.70;;;18.07;;
4122;SDS011;2075;51.062;6.920;2024-03-08T05:50:15;35.80;;;17.50;;
4122;SDS011;2075;51.062;6.920;2024-03-08T05:53:05;33.53;;;18.03;;
4122;SDS011;2075;51.062;6.920;2024-03-08T05:55:52;39.07;;;18.77;;
4122;SDS011;2075;51.062;6.920;2024-03-08T05:58:43;40.27;;;17.97;;
4122;SDS011;2075;51.062;6.920;2024-03-08T06:01:30;36.20;;;17.27;;
4122;SDS011;2075;51.062;6.920;2024-03-08T06:04:20;38.43;;;18.80;;
4122;SDS011;2075;51.062;6.920;2024-03-08T06:07:12;35.03;;;18.67;;
4122;SDS011;2075;51.062;6.920;2024-03-08T06:13:13;35.60;;;17.60;;
4122;SDS011;2075;51.062;6.920;2024-03-08T06:16:00;36.53;;;17.63;;
4122;SDS011;2075;51.062;6.920;2024-03-08T06:18:57;37.10;;;18.40;;
4122;SDS011;2075;51.062;6.920;2024-03-08T06:21:51;33.40;;;17.87;;
4122;SDS011;2075;51.062;6.920;2024-03-08T06:24:50;36.67;;;18.17;;
4122;SDS011;2075;51.062;6.920;2024-03-08T06:27:40;35.33;;;17.10;;
4122;SDS011;2075;51.062;6.920;2024-03-08T06:30:26;35.20;;;16.50;;
4122;SDS011;2075;51.062;6.920;2024-03-08T06:33:15;40.30;;;19.43;;
4122;SDS011;2075;51.062;6.920;2024-03-08T06:36:03;39.30;;;18.70;;
4122;SDS011;2075;51.062;6.920;2024-03-08T06:38:50;37.00;;;18.27;;
4122;SDS011;2075;51.062;6.920;2024-03-08T06:41:38;40.53;;;17.60;;
4122;SDS011;2075;51.062;6.920;2024-03-08T06:44:32;31.23;;;17.20;;
4122;SDS011;2075;51.062;6.920;2024-03-08T06:47:19;35.27;;;15.93;;
4122;SDS011;2075;51.062;6.920;2024-03-08T06:50:06;35.70;;;17.87;;
4122;SDS011;2075;51.062;6.920;2024-03-08T06:52:53;34.33;;;17.40;;
4122;SDS011;2075;51.062;6.920;2024-03-08T06:55:39;33.70;;;17.70;;
4122;SDS011;2075;51.062;6.920;2024-03-08T06:58:25;32.93;;;18.17;;
4122;SDS011;2075;51.062;6.920;2024-03-08T07:01:13;30.63;;;17.03;;
4122;SDS011;2075;51.062;6.920;2024-03-08T07:03:59;33.83;;;17.33;;
4122;SDS011;2075;51.062;6.920;2024-03-08T07:06:49;33.63;;;17.90;;
4122;SDS011;2075;51.062;6.920;2024-03-08T07:09:36;35.37;;;17.50;;
4122;SDS011;2075;51.062;6.920;2024-03-08T07:12:22;31.50;;;17.10;;
4122;SDS011;2075;51.062;6.920;2024-03-08T07:15:08;32.97;;;16.90;;
4122;SDS011;2075;51.062;6.920;2024-03-08T07:17:58;30.10;;;16.70;;
4122;SDS011;2075;51.062;6.920;2024-03-08T07:20:45;29.53;;;17.13;;
4122;SDS011;2075;51.062;6.920;2024-03-08T07:23:31;35.30;;;17.10;;
4122;SDS011;2075;51.062;6.920;2024-03-08T07:26:36;39.43;;;19.40;;
4122;SDS011;2075;51.062;6.920;2024-03-08T07:29:24;32.20;;;16.87;;
4122;SDS011;2075;51.062;6.920;2024-03-08T07:32:11;33.90;;;17.77;;
4122;SDS011;2075;51.062;6.920;2024-03-08T07:38:21;34.67;;;17.00;;
4122;SDS011;2075;51.062;6.920;2024-03-08T07:41:08;31.83;;;17.70;;
4122;SDS011;2075;51.062;6.920;2024-03-08T07:43:56;31.60;;;15.27;;
4122;SDS011;2075;51.062;6.920;2024-03-08T07:46:42;30.53;;;15.17;;
4122;SDS011;2075;51.062;6.920;2024-03-08T07:49:28;37.43;;;17.43;;
4122;SDS011;2075;51.062;6.920;2024-03-08T07:52:20;33.47;;;17.13;;
4122;SDS011;2075;51.062;6.920;2024-03-08T07:55:09;34.75;;;20.15;;
4122;SDS011;2075;51.062;6.920;2024-03-08T07:57:56;33.03;;;16.60;;
4122;SDS011;2075;51.062;6.920;2024-03-08T08:00:42;30.63;;;17.60;;
4122;SDS011;2075;51.062;6.920;2024-03-08T08:03:30;29.53;;;16.90;;
4122;SDS011;2075;51.062;6.920;2024-03-08T08:06:17;33.40;;;16.67;;
4122;SDS011;2075;51.062;6.920;2024-03-08T08:09:18;28.10;;;16.63;;
4122;SDS011;2075;51.062;6.920;2024-03-08T08:12:18;33.47;;;17.33;;
4122;SDS011;2075;51.062;6.920;2024-03-08T08:15:05;32.13;;;16.23;;
4122;SDS011;2075;51.062;6.920;2024-03-08T08:17:55;30.15;;;18.70;;
4122;SDS011;2075;51.062;6.920;2024-03-08T08:20:42;31.57;;;16.43;;
4122;SDS011;2075;51.062;6.920;2024-03-08T08:23:30;26.13;;;15.43;;
4122;SDS011;2075;51.062;6.920;2024-03-08T08:26:26;30.50;;;16.63;;
4122;SDS011;2075;51.062;6.920;2024-03-08T08:29:33;31.20;;;15.63;;
4122;SDS011;2075;51.062;6.920;2024-03-08T08:32:19;28.90;;;18.30;;
4122;SDS011;2075;51.062;6.920;2024-03-08T08:35:08;32.00;;;17.07;;
4122;SDS011;2075;51.062;6.920;2024-03-08T08:38:39;30.63;;;15.87;;
4122;SDS011;2075;51.062;6.920;2024-03-08T08:41:40;27.27;;;15.23;;
4122;SDS011;2075;51.062;6.920;2024-03-08T08:44:34;26.37;;;15.37;;
4122;SDS011;2075;51.062;6.920;2024-03-08T08:47:21;24.47;;;13.80;;
4122;SDS011;2075;51.062;6.920;2024-03-08T08:50:12;25.63;;;14.90;;
4122;SDS011;2075;51.062;6.920;2024-03-08T08:53:17;29.20;;;14.83;;
4122;SDS011;2075;51.062;6.920;2024-03-08T08:56:17;28.57;;;14.63;;
4122;SDS011;2075;51.062;6.920;2024-03-08T08:59:09;29.97;;;15.70;;
4122;SDS011;2075;51.062;6.920;2024-03-08T09:02:03;29.93;;;15.97;;
4122;SDS011;2075;51.062;6.920;2024-03-08T09:04:58;26.77;;;14.40;;
4122;SDS011;2075;51.062;6.920;2024-03-08T09:07:46;29.53;;;14.30;;
4122;SDS011;2075;51.062;6.920;2024-03-08T09:10:38;29.77;;;15.60;;
4122;SDS011;2075;51.062;6.920;2024-03-08T09:13:27;27.50;;;14.07;;
4122;SDS011;2075;51.062;6.920;2024-03-08T09:16:16;28.07;;;15.37;;
4122;SDS011;2075;51.062;6.920;2024-03-08T09:19:04;29.60;;;15.23;;
4122;SDS011;2075;51.062;6.920;2024-03-08T09:21:54;24.97;;;14.60;;
4122;SDS011;2075;51.062;6.920;2024-03-08T09:24:42;22.37;;;12.83;;
4122;SDS011;2075;51.062;6.920;2024-03-08T09:27:31;24.83;;;14.43;;
4122;SDS011;2075;51.062;6.920;2024-03-08T09:30:17;27.50;;;14.30;;
4122;SDS011;2075;51.062;6.920;2024-03-08T09:33:19;26.93;;;15.13;;
4122;SDS011;2075;51.062;6.920;2024-03-08T09:36:06;23.43;;;13.77;;
4122;SDS011;2075;51.062;6.920;2024-03-08T09:38:54;22.17;;;13.43;;
4122;SDS011;2075;51.062;6.920;2024-03-08T09:41:49;23.23;;;13.53;;
4122;SDS011;2075;51.062;6.920;2024-03-08T09:44:35;24.02;;;14.95;;
4122;SDS011;2075;51.062;6.920;2024-03-08T09:47:25;20.50;;;13.10;;
4122;SDS011;2075;51.062;6.920;2024-03-08T09:50:21;20.33;;;12.83;;
4122;SDS011;2075;51.062;6.920;2024-03-08T09:53:11;25.90;;;12.77;;
4122;SDS011;2075;51.062;6.920;2024-03-08T09:55:57;24.07;;;13.50;;
4122;SDS011;2075;51.062;6.920;2024-03-08T09:58:48;21.60;;;13.20;;
4122;SDS011;2075;51.062;6.920;2024-03-08T10:01:58;20.33;;;11.83;;
4122;SDS011;2075;51.062;6.920;2024-03-08T10:04:46;21.30;;;13.00;;
4122;SDS011;2075;51.062;6.920;2024-03-08T10:07:34;25.87;;;14.27;;
4122;SDS011;2075;51.062;6.920;2024-03-08T10:10:22;23.67;;;13.30;;
4122;SDS011;2075;51.062;6.920;2024-03-08T10:13:09;24.67;;;14.20;;
4122;SDS011;2075;51.062;6.920;2024-03-08T10:15:58;19.63;;;12.50;;
4122;SDS011;2075;51.062;6.920;2024-03-08T10:18:45;23.27;;;11.90;;
4122;SDS011;2075;51.062;6.920;2024-03-08T10:21:32;24.80;;;13.33;;
4122;SDS011;2075;51.062;6.920;2024-03-08T10:24:20;19.67;;;12.07;;
4122;SDS011;2075;51.062;6.920;2024-03-08T10:27:07;23.77;;;13.70;;
4122;SDS011;2075;51.062;6.920;2024-03-08T10:29:53;17.07;;;11.30;;
4122;SDS011;2075;51.062;6.920;2024-03-08T10:32:39;21.67;;;13.47;;
4122;SDS011;2075;51.062;6.920;2024-03-08T10:35:26;19.13;;;12.13;;
4122;SDS011;2075;51.062;6.920;2024-03-08T10:38:14;20.40;;;12.03;;
4122;SDS011;2075;51.062;6.920;2024-03-08T10:41:08;22.43;;;13.20;;
4122;SDS011;2075;51.062;6.920;2024-03-08T10:44:05;21.53;;;12.90;;
4122;SDS011;2075;51.062;6.920;2024-03-08T10:47:06;21.83;;;11.30;;
4122;SDS011;2075;51.062;6.920;2024-03-08T10:50:07;20.00;;;11.87;;
4122;SDS011;2075;51.062;6.920;2024-03-08T10:53:06;20.20;;;12.27;;
4122;SDS011;2075;51.062;6.920;2024-03-08T10:55:55;17.27;;;10.63;;
4122;SDS011;2075;51.062;6.920;2024-03-08T10:58:43;19.60;;;11.37;;
4122;SDS011;2075;51.062;6.920;2024-03-08T11:01:31;19.10;;;11.70;;
4122;SDS011;2075;51.062;6.920;2024-03-08T11:04:17;24.00;;;11.83;;
4122;SDS011;2075;51.062;6.920;2024-03-08T11:07:08;20.70;;;11.50;;
4122;SDS011;2075;51.062;6.920;2024-03-08T11:10:02;21.33;;;11.80;;
4122;SDS011;2075;51.062;6.920;2024-03-08T11:12:50;17.43;;;11.20;;
4122;SDS011;2075;51.062;6.920;2024-03-08T11:15:40;19.05;;;12.27;;
4122;SDS011;2075;51.062;6.920;2024-03-08T11:18:35;18.73;;;12.20;;
4122;SDS011;2075;51.062;6.920;2024-03-08T11:21:24;20.27;;;10.53;;
4122;SDS011;2075;51.062;6.920;2024-03-08T11:24:12;18.47;;;11.53;;
4122;SDS011;2075;51.062;6.920;2024-03-08T11:27:18;23.90;;;11.33;;
4122;SDS011;2075;51.062;6.920;2024-03-08T11:30:13;13.67;;;9.60;;
4122;SDS011;2075;51.062;6.920;2024-03-08T11:33:12;16.40;;;9.73;;
4122;SDS011;2075;51.062;6.920;2024-03-08T11:36:07;18.20;;;10.93;;
4122;SDS011;2075;51.062;6.920;2024-03-08T11:39:01;15.40;;;10.53;;
4122;SDS011;2075;51.062;6.920;2024-03-08T11:41:59;19.00;;;11.10;;
4122;SDS011;2075;51.062;6.920;2024-03-08T11:44:48;20.80;;;11.60;;
4122;SDS011;2075;51.062;6.920;2024-03-08T11:47:42;16.33;;;10.60;;
4122;SDS011;2075;51.062;6.920;2024-03-08T11:50:45;19.47;;;9.53;;
4122;SDS011;2075;51.062;6.920;2024-03-08T11:53:35;14.77;;;9.60;;
4122;SDS011;2075;51.062;6.920;2024-03-08T11:56:34;16.07;;;10.50;;
4122;SDS011;2075;51.062;6.920;2024-03-08T11:59:21;15.67;;;10.17;;
4122;SDS011;2075;51.062;6.920;2024-03-08T12:02:11;16.10;;;10.87;;
4122;SDS011;2075;51.062;6.920;2024-03-08T12:05:00;16.50;;;10.47;;
4122;SDS011;2075;51.062;6.920;2024-03-08T12:08:01;19.50;;;10.50;;
4122;SDS011;2075;51.062;6.920;2024-03-08T12:10:58;17.00;;;10.30;;
4122;SDS011;2075;51.062;6.920;2024-03-08T12:13:48;18.60;;;9.73;;
4122;SDS011;2075;51.062;6.920;2024-03-08T12:16:37;15.43;;;9.20;;
4122;SDS011;2075;51.062;6.920;2024-03-08T12:19:46;18.37;;;10.87;;
4122;SDS011;2075;51.062;6.920;2024-03-08T12:22:33;17.57;;;10.80;;
4122;SDS011;2075;51.062;6.920;2024-03-08T12:25:21;17.03;;;11.20;;
4122;SDS011;2075;51.062;6.920;2024-03-08T12:28:18;14.57;;;9.20;;
4122;SDS011;2075;51.062;6.920;2024-03-08T12:31:07;14.53;;;9.53;;
4122;SDS011;2075;51.062;6.920;2024-03-08T12:33:56;15.50;;;10.00;;
4122;SDS011;2075;51.062;6.920;2024-03-08T12:36:50;14.77;;;10.60;;
4122;SDS011;2075;51.062;6.920;2024-03-08T12:39:51;13.43;;;9.60;;
4122;SDS011;2075;51.062;6.920;2024-03-08T12:42:44;15.77;;;10.10;;
4122;SDS011;2075;51.062;6.920;2024-03-08T12:45:35;14.97;;;9.20;;
4122;SDS011;2075;51.062;6.920;2024-03-08T12:48:27;16.63;;;9.80;;
4122;SDS011;2075;51.062;6.920;2024-03-08T12:51:16;18.23;;;10.50;;
4122;SDS011;2075;51.062;6.920;2024-03-08T12:54:06;14.80;;;10.47;;
4122;SDS011;2075;51.062;6.920;2024-03-08T12:56:52;16.90;;;9.70;;
4122;SDS011;2075;51.062;6.920;2024-03-08T12:59:40;16.03;;;9.40;;
4122;SDS011;2075;51.062;6.920;2024-03-08T13:02:29;17.87;;;9.27;;
4122;SDS011;2075;51.062;6.920;2024-03-08T13:05:17;14.77;;;10.13;;
4122;SDS011;2075;51.062;6.920;2024-03-08T13:08:04;14.73;;;9.60;;
4122;SDS011;2075;51.062;6.920;2024-03-08T13:10:56;12.73;;;9.40;;
4122;SDS011;2075;51.062;6.920;2024-03-08T13:14:00;11.00;;;8.40;;
4122;SDS011;2075;51.062;6.920;2024-03-08T13:16:56;15.97;;;9.53;;
4122;SDS011;2075;51.062;6.920;2024-03-08T13:19:44;16.20;;;9.57;;
4122;SDS011;2075;51.062;6.920;2024-03-08T13:22:30;17.07;;;9.23;;
4122;SDS011;2075;51.062;6.920;2024-03-08T13:25:19;15.43;;;9.70;;
4122;SDS011;2075;51.062;6.920;2024-03-08T13:28:09;14.60;;;8.87;;
4122;SDS011;2075;51.062;6.920;2024-03-08T13:30:56;15.83;;;8.67;;
4122;SDS011;2075;51.062;6.920;2024-03-08T13:33:46;14.87;;;9.77;;
4122;SDS011;2075;51.062;6.920;2024-03-08T13:36:32;12.17;;;8.90;;
4122;SDS011;2075;51.062;6.920;2024-03-08T13:39:26;14.73;;;9.00;;
4122;SDS011;2075;51.062;6.920;2024-03-08T13:42:15;11.93;;;8.70;;
4122;SDS011;2075;51.062;6.920;2024-03-08T13:45:01;13.60;;;8.67;;
4122;SDS011;2075;51.062;6.920;2024-03-08T13:47:48;13.23;;;8.47;;
4122;SDS011;2075;51.062;6.920;2024-03-08T13:50:40;10.00;;;7.57;;
4122;SDS011;2075;51.062;6.920;2024-03-08T13:53:29;14.70;;;9.83;;
4122;SDS011;2075;51.062;6.920;2024-03-08T13:56:15;14.20;;;8.90;;
4122;SDS011;2075;51.062;6.920;2024-03-08T13:59:01;16.10;;;10.30;;
4122;SDS011;2075;51.062;6.920;2024-03-08T14:01:48;16.63;;;10.17;;
4122;SDS011;2075;51.062;6.920;2024-03-08T14:04:38;19.20;;;11.10;;
4122;SDS011;2075;51.062;6.920;2024-03-08T14:07:30;16.50;;;10.13;;
4122;SDS011;2075;51.062;6.920;2024-03-08T14:10:17;19.50;;;12.37;;
4122;SDS011;2075;51.062;6.920;2024-03-08T14:13:11;16.23;;;10.77;;
4122;SDS011;2075;51.062;6.920;2024-03-08T14:15:58;14.97;;;9.83;;
4122;SDS011;2075;51.062;6.920;2024-03-08T14:18:44;17.37;;;10.80;;
4122;SDS011;2075;51.062;6.920;2024-03-08T14:21:30;16.03;;;10.00;;
4122;SDS011;2075;51.062;6.920;2024-03-08T14:24:38;16.37;;;10.13;;
4122;SDS011;2075;51.062;6.920;2024-03-08T14:27:43;19.77;;;11.93;;
4122;SDS011;2075;51.062;6.920;2024-03-08T14:30:30;18.43;;;11.20;;
4122;SDS011;2075;51.062;6.920;2024-03-08T14:33:21;16.77;;;9.50;;
4122;SDS011;2075;51.062;6.920;2024-03-08T14:36:09;18.40;;;10.57;;
4122;SDS011;2075;51.062;6.920;2024-03-08T14:38:58;18.87;;;10.93;;
4122;SDS011;2075;51.062;6.920;2024-03-08T14:41:53;17.93;;;10.57;;
4122;SDS011;2075;51.062;6.920;2024-03-08T14:44:39;20.00;;;11.73;;
4122;SDS011;2075;51.062;6.920;2024-03-08T14:47:37;16.83;;;10.90;;
4122;SDS011;2075;51.062;6.920;2024-03-08T14:50:24;18.73;;;11.27;;
4122;SDS011;2075;51.062;6.920;2024-03-08T14:53:11;20.87;;;11.50;;
4122;SDS011;2075;51.062;6.920;2024-03-08T14:55:59;16.83;;;10.50;;
4122;SDS011;2075;51.062;6.920;2024-03-08T14:58:52;19.10;;;11.83;;
4122;SDS011;2075;51.062;6.920;2024-03-08T15:01:42;20.93;;;12.53;;
4122;SDS011;2075;51.062;6.920;2024-03-08T15:04:30;16.93;;;11.07;;
4122;SDS011;2075;51.062;6.920;2024-03-08T15:07:22;19.20;;;10.87;;
4122;SDS011;2075;51.062;6.920;2024-03-08T15:10:15;16.13;;;10.63;;
4122;SDS011;2075;51.062;6.920;2024-03-08T15:13:06;17.37;;;10.10;;
4122;SDS011;2075;51.062;6.920;2024-03-08T15:16:02;19.27;;;10.93;;
4122;SDS011;2075;51.062;6.920;2024-03-08T15:18:52;19.97;;;11.23;;
4122;SDS011;2075;51.062;6.920;2024-03-08T15:21:41;21.40;;;11.40;;
4122;SDS011;2075;51.062;6.920;2024-03-08T15:24:30;23.53;;;13.17;;
4122;SDS011;2075;51.062;6.920;2024-03-08T15:27:22;21.37;;;12.33;;
4122;SDS011;2075;51.062;6.920;2024-03-08T15:30:15;19.30;;;12.43;;
4122;SDS011;2075;51.062;6.920;2024-03-08T15:33:08;19.43;;;11.40;;
4122;SDS011;2075;51.062;6.920;2024-03-08T15:35:57;19.70;;;10.80;;
4122;SDS011;2075;51.062;6.920;2024-03-08T15:38:47;29.93;;;12.53;;
4122;SDS011;2075;51.062;6.920;2024-03-08T15:41:35;16.70;;;10.40;;
4122;SDS011;2075;51.062;6.920;2024-03-08T15:44:23;18.37;;;11.37;;
4122;SDS011;2075;51.062;6.920;2024-03-08T15:47:20;26.17;;;11.40;;
4122;SDS011;2075;51.062;6.920;2024-03-08T15:50:30;19.13;;;11.80;;
4122;SDS011;2075;51.062;6.920;2024-03-08T15:53:23;18.13;;;10.67;;
4122;SDS011;2075;51.062;6.920;2024-03-08T15:56:22;17.70;;;10.97;;
4122;SDS011;2075;51.062;6.920;2024-03-08T15:59:19;18.70;;;10.57;;
4122;SDS011;2075;51.062;6.920;2024-03-08T16:02:27;12.87;;;8.87;;
4122;SDS011;2075;51.062;6.920;2024-03-08T16:05:14;17.60;;;10.17;;
4122;SDS011;2075;51.062;6.920;2024-03-08T16:08:05;16.73;;;10.87;;
4122;SDS011;2075;51.062;6.920;2024-03-08T16:11:00;15.27;;;9.63;;
4122;SDS011;2075;51.062;6.920;2024-03-08T16:14:04;16.97;;;10.70;;
4122;SDS011;2075;51.062;6.920;2024-03-08T16:16:55;15.13;;;10.33;;
4122;SDS011;2075;51.062;6.920;2024-03-08T16:19:46;15.80;;;10.00;;
4122;SDS011;2075;51.062;6.920;2024-03-08T16:22:35;17.40;;;10.30;;
4122;SDS011;2075;51.062;6.920;2024-03-08T16:25:25;18.03;;;10.47;;
4122;SDS011;2075;51.062;6.920;2024-03-08T16:28:25;15.83;;;10.37;;
4122;SDS011;2075;51.062;6.920;2024-03-08T16:31:12;17.80;;;10.67;;
4122;SDS011;2075;51.062;6.920;2024-03-08T16:34:00;17.37;;;9.67;;
4122;SDS011;2075;51.062;6.920;2024-03-08T16:36:49;15.50;;;9.47;;
4122;SDS011;2075;51.062;6.920;2024-03-08T16:39:42;17.03;;;9.30;;
4122;SDS011;2075;51.062;6.920;2024-03-08T16:42:34;14.20;;;9.27;;
4122;SDS011;2075;51.062;6.920;2024-03-08T16:45:24;14.83;;;8.80;;
4122;SDS011;2075;51.062;6.920;2024-03-08T16:48:13;12.87;;;8.70;;
4122;SDS011;2075;51.062;6.920;2024-03-08T16:51:01;19.00;;;9.33;;
4122;SDS011;2075;51.062;6.920;2024-03-08T16:53:55;12.50;;;8.77;;
4122;SDS011;2075;51.062;6.920;2024-03-08T16:57:21;15.43;;;9.40;;
4122;SDS011;2075;51.062;6.920;2024-03-08T17:03:34;16.43;;;9.20;;
4122;SDS011;2075;51.062;6.920;2024-03-08T17:06:22;14.97;;;8.70;;
4122;SDS011;2075;51.062;6.920;2024-03-08T17:09:10;17.13;;;8.50;;
4122;SDS011;2075;51.062;6.920;2024-03-08T17:12:06;16.13;;;9.60;;
4122;SDS011;2075;51.062;6.920;2024-03-08T17:15:03;17.63;;;9.63;;
4122;SDS011;2075;51.062;6.920;2024-03-08T17:17:50;17.27;;;9.67;;
4122;SDS011;2075;51.062;6.920;2024-03-08T17:20:52;20.50;;;10.33;;
4122;SDS011;2075;51.062;6.920;2024-03-08T17:23:42;14.03;;;8.67;;
4122;SDS011;2075;51.062;6.920;2024-03-08T17:26:30;18.47;;;10.23;;
4122;SDS011;2075;51.062;6.920;2024-03-08T17:29:21;16.27;;;9.63;;
4122;SDS011;2075;51.062;6.920;2024-03-08T17:32:25;20.47;;;10.27;;
4122;SDS011;2075;51.062;6.920;2024-03-08T17:35:17;16.10;;;9.63;;
4122;SDS011;2075;51.062;6.920;2024-03-08T17:38:13;16.83;;;9.93;;
4122;SDS011;2075;51.062;6.920;2024-03-08T17:41:13;20.43;;;10.73;;
4122;SDS011;2075;51.062;6.920;2024-03-08T17:44:06;18.10;;;10.70;;
4122;SDS011;2075;51.062;6.920;2024-03-08T17:46:53;22.03;;;10.30;;